createdAt,value
2022-08-18T00:01:52.439Z,100.00
2022-08-18T00:04:34.828Z,100.00
2022-08-18T00:07:05.155Z,100.00
2022-08-18T00:09:33.126Z,100.00
2022-08-18T00:12:03.135Z,100.00
2022-08-18T00:14:33.075Z,100.00
2022-08-18T00:17:01.922Z,100.00
2022-08-18T00:19:46.638Z,100.00
2022-08-18T00:22:18.439Z,100.00
2022-08-18T00:24:49.658Z,100.00
2022-08-18T00:27:21.956Z,100.00
2022-08-18T00:29:54.048Z,100.00
2022-08-18T00:32:23.514Z,100.00
2022-08-18T00:34:51.639Z,100.00
2022-08-18T00:37:19.400Z,100.00
2022-08-18T00:39:48.083Z,100.00
2022-08-18T00:42:27.047Z,100.00
2022-08-18T00:45:02.889Z,100.00
2022-08-18T00:47:42.879Z,100.00
2022-08-18T00:50:15.460Z,100.00
2022-08-18T00:52:50.688Z,100.00
2022-08-18T00:55:19.899Z,100.00
2022-08-18T00:57:48.874Z,100.00
2022-08-18T01:00:18.182Z,100.00
2022-08-18T01:02:50.611Z,100.00
2022-08-18T01:05:24.015Z,100.00
2022-08-18T01:07:52.705Z,100.00
2022-08-18T01:10:22.867Z,100.00
2022-08-18T01:12:52.270Z,100.00
2022-08-18T01:15:28.719Z,100.00
2022-08-18T01:18:15.411Z,100.00
2022-08-18T01:21:06.897Z,100.00
2022-08-18T01:23:41.560Z,100.00
2022-08-18T01:26:09.550Z,100.00
2022-08-18T01:28:40.631Z,100.00
2022-08-18T01:31:09.937Z,100.00
2022-08-18T01:33:39.726Z,100.00
2022-08-18T01:36:14.805Z,100.00
2022-08-18T01:38:44.442Z,100.00
2022-08-18T01:41:27.054Z,100.00
2022-08-18T01:43:59.058Z,100.00
2022-08-18T01:46:27.727Z,100.00
2022-08-18T01:48:55.910Z,100.00
2022-08-18T01:51:40.428Z,100.00
2022-08-18T01:54:12.132Z,100.00
2022-08-18T01:56:40.942Z,100.00
2022-08-18T01:59:15.276Z,100.00
2022-08-18T02:01:50.704Z,100.00
2022-08-18T02:04:34.952Z,100.00
2022-08-18T02:07:06.104Z,100.00
2022-08-18T02:09:37.915Z,100.00
2022-08-18T02:12:07.256Z,100.00
2022-08-18T02:14:36.547Z,100.00
2022-08-18T02:17:06.317Z,100.00
2022-08-18T02:19:35.302Z,100.00
2022-08-18T02:22:03.819Z,100.00
2022-08-18T02:24:32.421Z,100.00
2022-08-18T02:27:01.710Z,100.00
2022-08-18T02:29:29.515Z,100.00
2022-08-18T02:31:57.181Z,100.00
2022-08-18T02:34:25.466Z,100.00
2022-08-18T02:36:53.235Z,100.00
2022-08-18T02:39:20.979Z,100.00
2022-08-18T02:41:48.881Z,100.00
2022-08-18T02:44:18.001Z,100.00
2022-08-18T02:46:46.408Z,100.00
2022-08-18T02:49:14.093Z,100.00
2022-08-18T02:51:41.931Z,100.00
2022-08-18T02:54:11.607Z,100.00
2022-08-18T02:56:41.640Z,100.00
2022-08-18T02:59:13.419Z,100.00
2022-08-18T03:01:46.380Z,100.00
2022-08-18T03:04:16.684Z,100.00
2022-08-18T03:06:46.408Z,100.00
2022-08-18T03:09:16.118Z,100.00
2022-08-18T03:11:43.909Z,100.00
2022-08-18T03:14:12.547Z,100.00
2022-08-18T03:16:54.441Z,100.00
2022-08-18T03:19:23.617Z,100.00
2022-08-18T03:21:52.465Z,100.00
2022-08-18T03:24:22.388Z,100.00
2022-08-18T03:26:52.877Z,100.00
2022-08-18T03:29:21.283Z,100.00
2022-08-18T03:31:51.020Z,100.00
2022-08-18T03:34:21.135Z,100.00
2022-08-18T03:36:49.858Z,100.00
2022-08-18T03:39:18.662Z,100.00
2022-08-18T03:41:59.658Z,100.00
2022-08-18T03:44:30.464Z,100.00
2022-08-18T03:47:00.164Z,100.00
2022-08-18T03:49:28.078Z,100.00
2022-08-18T03:52:01.160Z,100.00
2022-08-18T03:54:29.794Z,100.00
2022-08-18T03:56:57.764Z,100.00
2022-08-18T03:59:27.295Z,100.00
2022-08-18T04:01:56.334Z,100.00
2022-08-18T04:04:29.314Z,100.00
2022-08-18T04:06:59.274Z,100.00
2022-08-18T04:09:29.327Z,100.00
2022-08-18T04:11:57.727Z,100.00
2022-08-18T04:14:28.873Z,100.00
2022-08-18T04:16:56.683Z,100.00
2022-08-18T04:19:27.987Z,100.00
2022-08-18T04:21:57.438Z,100.00
2022-08-18T04:24:26.652Z,100.00
2022-08-18T04:26:58.057Z,100.00
2022-08-18T04:29:26.130Z,100.00
2022-08-18T04:31:53.977Z,100.00
2022-08-18T04:34:22.970Z,100.00
2022-08-18T04:36:54.594Z,100.00
2022-08-18T04:39:23.562Z,100.00
2022-08-18T04:41:51.639Z,100.00
2022-08-18T04:44:20.399Z,100.00
2022-08-18T04:46:50.305Z,100.00
2022-08-18T04:49:19.148Z,100.00
2022-08-18T04:52:36.565Z,100.00
2022-08-18T04:54:58.153Z,100.00
2022-08-18T04:57:26.854Z,100.00
2022-08-18T04:59:54.486Z,100.00
2022-08-18T05:02:22.616Z,100.00
2022-08-18T05:04:52.231Z,100.00
2022-08-18T05:07:23.544Z,100.00
2022-08-18T05:09:51.920Z,100.00
2022-08-18T05:12:25.952Z,100.00
2022-08-18T05:14:56.890Z,100.00
2022-08-18T05:17:30.367Z,100.00
2022-08-18T05:20:01.414Z,100.00
2022-08-18T05:22:31.711Z,100.00
2022-08-18T05:25:00.147Z,100.00
2022-08-18T05:27:35.169Z,100.00
2022-08-18T05:30:03.782Z,100.00
2022-08-18T05:32:47.561Z,100.00
2022-08-18T05:35:22.675Z,100.00
2022-08-18T05:38:02.046Z,100.00
2022-08-18T05:40:31.011Z,100.00
2022-08-18T05:43:00.694Z,100.00
2022-08-18T05:45:29.018Z,100.00
2022-08-18T05:48:00.101Z,100.00
2022-08-18T05:50:29.823Z,100.00
2022-08-18T05:52:59.178Z,100.00
2022-08-18T05:55:49.928Z,100.00
2022-08-18T05:58:21.344Z,100.00
2022-08-18T06:00:59.740Z,100.00
2022-08-18T06:03:31.544Z,100.00
2022-08-18T06:06:16.921Z,100.00
2022-08-18T06:08:48.696Z,100.00
2022-08-18T06:11:22.331Z,100.00
2022-08-18T06:13:54.198Z,100.00
2022-08-18T06:16:35.255Z,100.00
2022-08-18T06:19:05.273Z,100.00
2022-08-18T06:21:40.767Z,100.00
2022-08-18T06:24:19.067Z,100.00
2022-08-18T06:26:52.596Z,100.00
2022-08-18T06:29:42.189Z,100.00
2022-08-18T06:32:19.030Z,100.00
2022-08-18T06:34:57.009Z,100.00
2022-08-18T06:37:30.413Z,100.00
2022-08-18T06:39:59.655Z,100.00
2022-08-18T06:42:30.600Z,100.00
2022-08-18T06:45:02.306Z,100.00
2022-08-18T06:47:37.615Z,100.00
2022-08-18T06:50:08.296Z,100.00
2022-08-18T06:52:38.306Z,100.00
2022-08-18T06:55:09.053Z,100.00
2022-08-18T06:57:38.606Z,100.00
2022-08-18T07:00:11.520Z,100.00
2022-08-18T07:02:51.986Z,100.00
2022-08-18T07:05:25.636Z,100.00
2022-08-18T07:08:07.833Z,100.00
2022-08-18T07:10:38.378Z,100.00
2022-08-18T07:13:17.785Z,100.00
2022-08-18T07:15:48.191Z,100.00
2022-08-18T07:18:23.307Z,100.00
2022-08-18T07:20:54.655Z,100.00
2022-08-18T07:23:27.455Z,100.00
2022-08-18T07:26:03.225Z,100.00
2022-08-18T07:28:33.869Z,100.00
2022-08-18T07:31:18.829Z,100.00
2022-08-18T07:33:53.127Z,100.00
2022-08-18T07:36:21.763Z,100.00
2022-08-18T07:38:52.745Z,100.00
2022-08-18T07:41:26.269Z,100.00
2022-08-18T07:44:16.469Z,100.00
2022-08-18T07:46:51.941Z,100.00
2022-08-18T07:49:22.667Z,100.00
2022-08-18T07:51:54.034Z,100.00
2022-08-18T07:54:51.120Z,100.00
2022-08-18T07:57:26.480Z,100.00
2022-08-18T07:59:59.955Z,100.00
2022-08-18T08:02:37.603Z,100.00
2022-08-18T08:05:11.400Z,100.00
2022-08-18T08:07:42.937Z,100.00
2022-08-18T08:10:26.072Z,100.00
2022-08-18T08:13:09.097Z,100.00
2022-08-18T08:15:46.734Z,100.00
2022-08-18T08:18:20.069Z,100.00
2022-08-18T08:20:50.935Z,99.69
2022-08-18T08:23:27.435Z,98.54
2022-08-18T08:26:08.089Z,97.68
2022-08-18T08:28:42.565Z,95.25
2022-08-18T08:34:55.263Z,93.75
2022-08-18T08:37:29.532Z,93.66
2022-08-18T08:39:59.171Z,93.63
2022-08-18T08:42:36.348Z,93.20
2022-08-18T08:45:10.640Z,92.80
2022-08-18T08:47:43.837Z,92.43
2022-08-18T08:50:16.124Z,92.62
2022-08-18T08:52:48.095Z,92.22
2022-08-18T08:55:19.258Z,91.90
2022-08-18T08:57:51.441Z,91.51
2022-08-18T09:00:19.691Z,90.97
2022-08-18T09:03:11.372Z,91.46
2022-08-18T09:09:43.038Z,88.65
2022-08-18T09:12:19.972Z,86.16
2022-08-18T09:15:25.199Z,83.60
2022-08-18T09:18:05.928Z,85.14
2022-08-18T09:20:49.761Z,86.96
2022-08-18T09:23:21.091Z,86.38
2022-08-18T09:25:52.607Z,85.72
2022-08-18T09:28:23.347Z,85.97
2022-08-18T09:31:10.793Z,84.47
2022-08-18T09:34:17.271Z,82.92
2022-08-18T09:40:12.581Z,82.20
2022-08-18T09:42:55.890Z,81.62
2022-08-18T09:45:55.305Z,79.50
2022-08-18T09:48:30.570Z,81.13
2022-08-18T09:51:23.519Z,80.60
2022-08-18T09:54:14.371Z,80.36
2022-08-18T09:57:23.605Z,80.54
2022-08-18T09:59:59.317Z,79.53
2022-08-18T10:03:04.297Z,79.26
2022-08-18T10:05:32.560Z,78.56
2022-08-18T10:08:35.877Z,78.14
2022-08-18T10:11:20.623Z,78.62
2022-08-18T10:14:05.723Z,79.10
2022-08-18T10:17:12.944Z,78.59
2022-08-18T10:19:40.163Z,76.14
2022-08-18T10:22:09.627Z,76.81
2022-08-18T10:24:41.482Z,79.32
2022-08-18T10:27:29.618Z,76.84
2022-08-18T10:29:58.653Z,76.49
2022-08-18T10:35:58.983Z,76.39
2022-08-18T10:38:46.107Z,76.72
2022-08-18T10:41:31.437Z,75.80
2022-08-18T10:44:00.578Z,74.10
2022-08-18T10:46:34.410Z,72.23
2022-08-18T10:49:18.324Z,73.03
2022-08-18T10:52:00.950Z,70.47
2022-08-18T10:58:05.819Z,73.91
2022-08-18T11:00:45.201Z,72.03
2022-08-18T11:03:50.735Z,73.21
2022-08-18T11:09:02.845Z,74.18
2022-08-18T11:14:44.277Z,72.97
2022-08-18T11:17:18.539Z,72.46
2022-08-18T11:19:50.641Z,69.46
2022-08-18T11:22:31.141Z,71.97
2022-08-18T11:25:01.008Z,71.95
2022-08-18T11:27:32.860Z,73.29
2022-08-18T11:30:02.198Z,74.80
2022-08-18T11:35:25.967Z,71.76
2022-08-18T11:37:59.895Z,70.93
2022-08-18T11:43:29.429Z,68.26
2022-08-18T11:46:00.229Z,69.03
2022-08-18T11:48:50.992Z,66.89
2022-08-18T11:51:23.685Z,67.58
2022-08-18T11:56:45.258Z,67.44
2022-08-18T11:59:52.245Z,65.80
2022-08-18T12:02:22.430Z,67.64
2022-08-18T12:04:53.671Z,68.07
2022-08-18T12:07:28.815Z,65.93
2022-08-18T12:10:19.025Z,66.61
2022-08-18T12:12:51.757Z,67.08
2022-08-18T12:15:44.188Z,64.84
2022-08-18T12:18:18.682Z,65.39
2022-08-18T12:20:55.165Z,64.11
2022-08-18T12:23:23.153Z,63.86
2022-08-18T12:25:52.881Z,63.40
2022-08-18T12:28:22.451Z,63.89
2022-08-18T12:30:57.008Z,65.22
2022-08-18T12:33:34.608Z,66.01
2022-08-18T12:36:15.786Z,65.36
2022-08-18T12:38:52.193Z,66.52
2022-08-18T12:41:26.502Z,67.71
2022-08-18T12:46:42.946Z,68.10
2022-08-18T12:49:16.236Z,66.86
2022-08-18T12:51:44.052Z,67.37
2022-08-18T12:54:12.805Z,67.57
2022-08-18T12:56:42.985Z,67.87
2022-08-18T12:59:11.979Z,67.58
2022-08-18T13:01:41.124Z,68.48
2022-08-18T13:07:04.766Z,67.79
2022-08-18T13:09:53.106Z,66.20
2022-08-18T13:13:24.988Z,65.71
2022-08-18T13:16:01.501Z,66.52
2022-08-18T13:18:31.403Z,64.95
2022-08-18T13:21:00.281Z,64.99
2022-08-18T13:23:29.109Z,64.54
2022-08-18T13:26:01.364Z,63.11
2022-08-18T13:28:35.797Z,61.77
2022-08-18T13:31:23.427Z,60.96
2022-08-18T13:33:57.482Z,62.10
2022-08-18T13:36:44.309Z,63.97
2022-08-18T13:39:16.447Z,62.66
2022-08-18T13:41:48.767Z,61.15
2022-08-18T13:44:19.690Z,57.94
2022-08-18T13:47:52.062Z,57.78
2022-08-18T13:50:29.744Z,58.84
2022-08-18T13:53:01.107Z,60.63
2022-08-18T13:55:29.978Z,58.39
2022-08-18T13:57:58.016Z,57.26
2022-08-18T14:00:31.214Z,60.43
2022-08-18T14:03:03.435Z,59.18
2022-08-18T14:05:50.811Z,63.88
2022-08-18T14:08:20.769Z,62.62
2022-08-18T14:10:50.962Z,64.86
2022-08-18T14:13:24.304Z,64.02
2022-08-18T14:15:56.475Z,64.82
2022-08-18T14:18:31.154Z,64.91
2022-08-18T14:21:23.003Z,63.06
2022-08-18T14:24:14.336Z,63.67
2022-08-18T14:26:50.036Z,63.66
2022-08-18T14:29:46.829Z,63.27
2022-08-18T14:32:06.678Z,62.74
2022-08-18T14:34:35.122Z,62.54
2022-08-18T14:37:05.360Z,63.44
2022-08-18T14:39:38.800Z,62.62
2022-08-18T14:42:10.204Z,63.02
2022-08-18T14:44:41.598Z,62.04
2022-08-18T14:47:13.728Z,61.66
2022-08-18T14:49:52.321Z,63.01
2022-08-18T14:52:27.630Z,62.61
2022-08-18T14:54:56.536Z,62.84
2022-08-18T14:57:25.696Z,61.38
2022-08-18T14:59:53.584Z,61.52
2022-08-18T15:02:26.283Z,55.20
2022-08-18T15:04:56.234Z,53.24
2022-08-18T15:07:27.504Z,54.28
2022-08-18T15:10:15.252Z,52.41
2022-08-18T15:12:44.543Z,50.13
2022-08-18T15:15:18.131Z,52.15
2022-08-18T15:17:52.406Z,51.63
2022-08-18T15:20:23.827Z,53.38
2022-08-18T15:23:18.243Z,57.16
2022-08-18T15:25:52.464Z,59.53
2022-08-18T15:28:23.722Z,61.09
2022-08-18T15:33:42.391Z,58.18
2022-08-18T15:36:16.257Z,60.62
2022-08-18T15:38:46.228Z,60.56
2022-08-18T15:41:33.990Z,61.63
2022-08-18T15:44:03.561Z,58.95
2022-08-18T15:46:33.616Z,54.50
2022-08-18T15:49:05.136Z,51.03
2022-08-18T15:51:35.471Z,47.81
2022-08-18T15:54:11.411Z,48.95
2022-08-18T15:56:39.433Z,46.91
2022-08-18T15:59:11.042Z,45.45
2022-08-18T16:01:43.485Z,46.59
2022-08-18T16:04:12.657Z,46.00
2022-08-18T16:06:45.126Z,45.64
2022-08-18T16:09:15.396Z,44.78
2022-08-18T16:11:43.412Z,46.22
2022-08-18T16:14:11.036Z,48.91
2022-08-18T16:16:38.836Z,48.07
2022-08-18T16:19:07.979Z,46.56
2022-08-18T16:21:39.619Z,47.13
2022-08-18T16:24:08.292Z,49.34
2022-08-18T16:26:37.513Z,49.56
2022-08-18T16:29:05.556Z,49.69
2022-08-18T16:31:33.651Z,53.98
2022-08-18T16:34:02.231Z,49.56
2022-08-18T16:36:29.989Z,49.19
2022-08-18T16:38:58.340Z,52.40
2022-08-18T16:41:27.330Z,50.43
2022-08-18T16:43:56.539Z,52.39
2022-08-18T16:46:26.622Z,53.61
2022-08-18T16:48:54.998Z,50.42
2022-08-18T16:51:25.260Z,52.71
2022-08-18T16:53:54.440Z,53.41
2022-08-18T16:56:24.033Z,52.77
2022-08-18T16:59:10.468Z,52.95
2022-08-18T17:01:57.218Z,52.58
2022-08-18T17:04:28.648Z,56.66
2022-08-18T17:06:57.659Z,57.26
2022-08-18T17:09:27.943Z,56.39
2022-08-18T17:11:56.107Z,55.45
2022-08-18T17:14:27.689Z,55.80
2022-08-18T17:16:58.681Z,56.89
2022-08-18T17:19:30.227Z,55.15
2022-08-18T17:21:58.584Z,56.41
2022-08-18T17:24:31.703Z,55.15
2022-08-18T17:27:22.357Z,56.59
2022-08-18T17:30:00.427Z,57.10
2022-08-18T17:35:09.418Z,61.29
2022-08-18T17:37:37.971Z,63.51
2022-08-18T17:40:08.616Z,65.89
2022-08-18T17:42:40.102Z,66.51
2022-08-18T17:45:13.742Z,66.17
2022-08-18T17:47:56.379Z,66.91
2022-08-18T17:50:45.786Z,67.91
2022-08-18T17:53:15.537Z,67.58
2022-08-18T17:55:46.399Z,68.93
2022-08-18T17:58:20.534Z,69.93
2022-08-18T18:00:48.216Z,70.68
2022-08-18T18:03:17.480Z,70.65
2022-08-18T18:05:52.712Z,71.43
2022-08-18T18:08:20.896Z,72.55
2022-08-18T18:11:04.000Z,73.27
2022-08-18T18:13:35.179Z,74.68
2022-08-18T18:16:21.902Z,74.68
2022-08-18T18:18:59.968Z,75.61
2022-08-18T18:22:00.136Z,76.04
2022-08-18T18:24:24.146Z,75.93
2022-08-18T18:26:52.523Z,76.93
2022-08-18T18:29:28.911Z,77.68
2022-08-18T18:32:01.623Z,78.26
2022-08-18T18:34:39.147Z,77.98
2022-08-18T18:37:25.903Z,78.66
2022-08-18T18:39:58.349Z,79.89
2022-08-18T18:42:29.230Z,80.61
2022-08-18T18:45:00.436Z,82.68
2022-08-18T18:47:49.409Z,85.20
2022-08-18T18:50:28.189Z,87.76
2022-08-18T18:53:11.243Z,87.08
2022-08-18T18:55:44.995Z,88.26
2022-08-18T18:58:22.805Z,89.63
2022-08-18T19:00:54.209Z,90.26
2022-08-18T19:03:27.475Z,91.04
2022-08-18T19:06:06.883Z,92.27
2022-08-18T19:08:39.764Z,91.85
2022-08-18T19:11:15.227Z,91.79
2022-08-18T19:13:47.239Z,93.73
2022-08-18T19:16:26.584Z,94.98
2022-08-18T19:19:37.649Z,94.54
2022-08-18T19:22:05.805Z,97.48
2022-08-18T19:24:38.978Z,98.52
2022-08-18T19:27:12.444Z,99.16
2022-08-18T19:29:43.876Z,98.73
2022-08-18T19:32:16.825Z,96.20
2022-08-18T19:34:52.701Z,93.47
2022-08-18T19:37:32.292Z,93.66
2022-08-18T19:40:04.530Z,93.54
2022-08-18T19:42:37.505Z,93.24
2022-08-18T19:45:16.742Z,91.38
2022-08-18T19:47:50.011Z,92.17
2022-08-18T19:50:35.677Z,92.44
2022-08-18T19:53:20.857Z,91.81
2022-08-18T19:56:03.287Z,95.12
2022-08-18T19:59:15.458Z,96.54
2022-08-18T20:01:53.651Z,98.46
2022-08-18T20:04:28.635Z,100.00
2022-08-18T20:07:25.208Z,100.00
2022-08-18T20:10:14.941Z,100.00
2022-08-18T20:12:57.740Z,100.00
2022-08-18T20:15:28.507Z,100.00
2022-08-18T20:18:02.994Z,100.00
2022-08-18T20:20:32.025Z,100.00
2022-08-18T20:23:01.051Z,100.00
2022-08-18T20:25:40.759Z,100.00
2022-08-18T20:28:33.419Z,100.00
2022-08-18T20:31:12.626Z,100.00
2022-08-18T20:33:46.247Z,100.00
2022-08-18T20:36:31.336Z,100.00
2022-08-18T20:39:01.221Z,100.00
2022-08-18T20:41:41.418Z,100.00
2022-08-18T20:44:57.358Z,100.00
2022-08-18T20:47:47.374Z,100.00
2022-08-18T20:50:44.091Z,100.00
2022-08-18T20:53:19.014Z,100.00
2022-08-18T20:55:56.356Z,100.00
2022-08-18T20:58:32.627Z,100.00
2022-08-18T21:01:01.994Z,100.00
2022-08-18T21:03:37.533Z,100.00
2022-08-18T21:06:06.281Z,100.00
2022-08-18T21:08:36.798Z,100.00
2022-08-18T21:11:08.144Z,100.00
2022-08-18T21:13:40.694Z,100.00
2022-08-18T21:16:09.743Z,100.00
2022-08-18T21:18:38.445Z,100.00
2022-08-18T21:21:26.673Z,100.00
2022-08-18T21:23:58.037Z,100.00
2022-08-18T21:26:27.287Z,100.00
2022-08-18T21:28:59.266Z,100.00
2022-08-18T21:31:44.213Z,100.00
2022-08-18T21:34:18.267Z,100.00
2022-08-18T21:36:53.629Z,100.00
2022-08-18T21:39:24.420Z,100.00
2022-08-18T21:41:54.384Z,100.00
2022-08-18T21:44:25.188Z,100.00
2022-08-18T21:47:05.781Z,100.00
2022-08-18T21:49:34.983Z,100.00
2022-08-18T21:52:02.963Z,100.00
2022-08-18T21:54:34.357Z,100.00
2022-08-18T21:57:23.111Z,100.00
2022-08-18T22:00:25.687Z,100.00
2022-08-18T22:03:11.544Z,100.00
2022-08-18T22:05:59.118Z,100.00
2022-08-18T22:08:29.638Z,100.00
2022-08-18T22:12:01.552Z,100.00
2022-08-18T22:14:53.975Z,100.00
2022-08-18T22:17:31.592Z,100.00
2022-08-18T22:20:39.296Z,100.00
2022-08-18T22:23:39.581Z,100.00
2022-08-18T22:26:12.364Z,100.00
2022-08-18T22:28:51.110Z,100.00
2022-08-18T22:31:21.248Z,100.00
2022-08-18T22:33:51.234Z,100.00
2022-08-18T22:36:21.500Z,100.00
2022-08-18T22:38:49.483Z,100.00
2022-08-18T22:41:18.479Z,100.00
2022-08-18T22:43:46.123Z,100.00
2022-08-18T22:46:24.114Z,100.00
2022-08-18T22:48:55.938Z,100.00
2022-08-18T22:51:25.186Z,100.00
2022-08-18T22:54:06.280Z,100.00
2022-08-18T22:56:35.736Z,100.00
2022-08-18T22:59:14.046Z,100.00
2022-08-18T23:01:46.045Z,100.00
2022-08-18T23:04:16.882Z,100.00
2022-08-18T23:06:51.575Z,100.00
2022-08-18T23:09:21.963Z,100.00
2022-08-18T23:15:43.810Z,100.00
2022-08-18T23:18:12.237Z,100.00
2022-08-18T23:20:41.453Z,100.00
2022-08-18T23:23:09.859Z,100.00
2022-08-18T23:25:37.980Z,100.00
2022-08-18T23:28:10.625Z,100.00
2022-08-18T23:30:40.959Z,100.00
2022-08-18T23:33:10.338Z,100.00
2022-08-18T23:35:38.352Z,100.00
2022-08-18T23:38:08.759Z,100.00
2022-08-18T23:40:38.296Z,100.00
2022-08-18T23:43:06.908Z,100.00
2022-08-18T23:45:36.446Z,100.00
2022-08-18T23:48:04.561Z,100.00
2022-08-18T23:50:32.826Z,100.00
2022-08-18T23:53:02.781Z,100.00
2022-08-18T23:55:33.897Z,100.00
2022-08-18T23:58:01.539Z,100.00
